createdAt,value
2022-12-08T00:01:25.644Z,96547.00
2022-12-08T00:03:53.143Z,96546.00
2022-12-08T00:06:51.308Z,96546.00
2022-12-08T00:09:37.929Z,96545.00
2022-12-08T00:12:08.477Z,96538.00
2022-12-08T00:14:45.313Z,96549.00
2022-12-08T00:17:15.122Z,96546.00
2022-12-08T00:19:42.982Z,96541.00
2022-12-08T00:22:11.467Z,96543.00
2022-12-08T00:24:40.307Z,96538.00
2022-12-08T00:27:09.177Z,96539.00
2022-12-08T00:29:36.067Z,96528.00
2022-12-08T00:32:03.024Z,96531.00
2022-12-08T00:34:31.900Z,96523.00
2022-12-08T00:36:58.998Z,96530.00
2022-12-08T00:39:25.734Z,96526.00
2022-12-08T00:42:11.236Z,96515.00
2022-12-08T00:44:38.591Z,96522.00
2022-12-08T00:47:05.526Z,96521.00
2022-12-08T00:49:32.338Z,96527.00
2022-12-08T00:51:59.099Z,96530.00
2022-12-08T00:54:25.982Z,96529.00
2022-12-08T00:56:53.120Z,96535.00
2022-12-08T00:59:20.021Z,96527.00
2022-12-08T01:01:47.839Z,96523.00
2022-12-08T01:04:18.057Z,96538.00
2022-12-08T01:06:45.855Z,96527.00
2022-12-08T01:09:15.079Z,96527.00
2022-12-08T01:11:43.964Z,96525.00
2022-12-08T01:14:10.856Z,96518.00
2022-12-08T01:16:37.664Z,96527.00
2022-12-08T01:19:04.865Z,96530.00
2022-12-08T01:21:31.686Z,96519.00
2022-12-08T01:24:01.084Z,96519.00
2022-12-08T01:26:27.902Z,96516.00
2022-12-08T01:28:54.836Z,96522.00
2022-12-08T01:31:22.923Z,96526.00
2022-12-08T01:33:50.307Z,96527.00
2022-12-08T01:36:26.697Z,96527.00
2022-12-08T01:38:57.206Z,96514.00
2022-12-08T01:41:27.430Z,96520.00
2022-12-08T01:44:01.399Z,96529.00
2022-12-08T01:46:31.945Z,96522.00
2022-12-08T01:49:13.846Z,96512.00
2022-12-08T01:51:56.725Z,96506.00
2022-12-08T01:54:28.365Z,96504.00
2022-12-08T01:57:03.344Z,96504.00
2022-12-08T01:59:33.116Z,96504.00
2022-12-08T02:01:59.882Z,96503.00
2022-12-08T02:04:26.696Z,96497.00
2022-12-08T02:06:54.757Z,96496.00
2022-12-08T02:09:22.914Z,96489.00
2022-12-08T02:11:51.210Z,96496.00
2022-12-08T02:14:18.019Z,96480.00
2022-12-08T02:17:25.484Z,96476.00
2022-12-08T02:20:17.172Z,96475.00
2022-12-08T02:23:04.624Z,96472.00
2022-12-08T02:25:55.724Z,96468.00
2022-12-08T02:29:17.534Z,96469.00
2022-12-08T02:31:59.569Z,96457.00
2022-12-08T02:35:14.900Z,96460.00
2022-12-08T02:38:10.059Z,96457.00
2022-12-08T02:41:00.195Z,96454.00
2022-12-08T02:43:38.397Z,96451.00
2022-12-08T02:46:12.347Z,96450.00
2022-12-08T02:48:40.000Z,96452.00
2022-12-08T02:51:06.755Z,96450.00
2022-12-08T02:53:35.354Z,96452.00
2022-12-08T02:56:43.861Z,96446.00
2022-12-08T02:59:43.159Z,96450.00
2022-12-08T03:02:42.625Z,96444.00
2022-12-08T03:05:40.681Z,96445.00
2022-12-08T03:08:54.856Z,96441.00
2022-12-08T03:11:43.032Z,96438.00
2022-12-08T03:14:13.896Z,96440.00
2022-12-08T03:16:46.538Z,96427.00
2022-12-08T03:19:31.798Z,96426.00
2022-12-08T03:22:02.832Z,96422.00
2022-12-08T03:24:39.221Z,96420.00
2022-12-08T03:27:14.150Z,96421.00
2022-12-08T03:29:41.340Z,96409.00
2022-12-08T03:32:44.276Z,96408.00
2022-12-08T03:35:17.941Z,96408.00
2022-12-08T03:37:44.998Z,96410.00
2022-12-08T03:40:16.252Z,96409.00
2022-12-08T03:42:43.149Z,96401.00
2022-12-08T03:45:10.615Z,96406.00
2022-12-08T03:47:37.776Z,96398.00
2022-12-08T03:50:06.196Z,96403.00
2022-12-08T03:52:33.449Z,96397.00
2022-12-08T03:55:00.209Z,96393.00
2022-12-08T03:57:26.962Z,96401.00
2022-12-08T03:59:53.774Z,96396.00
2022-12-08T04:02:20.736Z,96401.00
2022-12-08T04:04:47.624Z,96403.00
2022-12-08T04:07:14.351Z,96404.00
2022-12-08T04:09:41.895Z,96400.00
2022-12-08T04:12:09.373Z,96400.00
2022-12-08T04:14:36.213Z,96397.00
2022-12-08T04:17:03.034Z,96398.00
2022-12-08T04:19:29.837Z,96394.00
2022-12-08T04:21:56.755Z,96395.00
2022-12-08T04:24:23.606Z,96397.00
2022-12-08T04:26:50.690Z,96394.00
2022-12-08T04:29:17.967Z,96391.00
2022-12-08T04:31:44.791Z,96392.00
2022-12-08T04:34:11.628Z,96397.00
2022-12-08T04:36:38.365Z,96394.00
2022-12-08T04:39:05.424Z,96391.00
2022-12-08T04:41:32.262Z,96388.00
2022-12-08T04:43:59.035Z,96385.00
2022-12-08T04:46:25.850Z,96382.00
2022-12-08T04:48:52.721Z,96380.00
2022-12-08T04:51:21.095Z,96384.00
2022-12-08T04:53:48.001Z,96389.00
2022-12-08T04:56:17.705Z,96382.00
2022-12-08T04:58:45.438Z,96385.00
2022-12-08T05:01:12.996Z,96379.00
2022-12-08T05:03:40.178Z,96378.00
2022-12-08T05:06:07.300Z,96381.00
2022-12-08T05:08:34.256Z,96388.00
2022-12-08T05:11:09.697Z,96385.00
2022-12-08T05:13:37.067Z,96387.00
2022-12-08T05:16:11.640Z,96393.00
2022-12-08T05:18:40.068Z,96392.00
2022-12-08T05:21:07.557Z,96399.00
2022-12-08T05:23:35.372Z,96382.00
2022-12-08T05:26:02.538Z,96390.00
2022-12-08T05:28:44.645Z,96380.00
2022-12-08T05:31:13.459Z,96381.00
2022-12-08T05:33:40.875Z,96374.00
2022-12-08T05:36:09.015Z,96377.00
2022-12-08T05:38:36.187Z,96368.00
2022-12-08T05:41:03.676Z,96371.00
2022-12-08T05:43:30.476Z,96372.00
2022-12-08T05:45:57.318Z,96360.00
2022-12-08T05:48:24.387Z,96368.00
2022-12-08T05:50:52.756Z,96370.00
2022-12-08T05:53:20.645Z,96369.00
2022-12-08T05:55:48.196Z,96378.00
2022-12-08T05:58:19.485Z,96362.00
2022-12-08T06:00:47.775Z,96376.00
2022-12-08T06:03:16.780Z,96363.00
2022-12-08T06:05:45.801Z,96371.00
2022-12-08T06:08:13.498Z,96369.00
2022-12-08T06:10:45.376Z,96367.00
2022-12-08T06:13:13.977Z,96370.00
2022-12-08T06:15:41.771Z,96373.00
2022-12-08T06:18:09.856Z,96379.00
2022-12-08T06:20:36.667Z,96375.00
2022-12-08T06:23:03.470Z,96380.00
2022-12-08T06:25:30.226Z,96385.00
2022-12-08T06:27:57.364Z,96376.00
2022-12-08T06:30:24.217Z,96382.00
2022-12-08T06:32:50.954Z,96382.00
2022-12-08T06:35:17.925Z,96377.00
2022-12-08T06:37:44.693Z,96381.00
2022-12-08T06:40:12.209Z,96380.00
2022-12-08T06:42:44.858Z,96384.00
2022-12-08T06:45:17.116Z,96383.00
2022-12-08T06:47:44.152Z,96390.00
2022-12-08T06:50:12.591Z,96385.00
2022-12-08T06:52:49.258Z,96392.00
2022-12-08T06:55:50.864Z,96395.00
2022-12-08T06:58:09.736Z,96394.00
2022-12-08T07:00:36.504Z,96390.00
2022-12-08T07:03:03.281Z,96394.00
2022-12-08T07:05:30.154Z,96397.00
2022-12-08T07:07:56.944Z,96399.00
2022-12-08T07:10:23.716Z,96400.00
2022-12-08T07:12:50.479Z,96396.00
2022-12-08T07:15:17.444Z,96404.00
2022-12-08T07:17:44.239Z,96398.00
2022-12-08T07:20:11.482Z,96393.00
2022-12-08T07:22:38.224Z,96397.00
2022-12-08T07:25:06.115Z,96400.00
2022-12-08T07:27:32.954Z,96398.00
2022-12-08T07:29:59.768Z,96391.00
2022-12-08T07:32:26.804Z,96394.00
2022-12-08T07:34:53.765Z,96392.00
2022-12-08T07:37:20.811Z,96388.00
2022-12-08T07:39:47.697Z,96393.00
2022-12-08T07:42:14.489Z,96396.00
2022-12-08T07:44:41.248Z,96395.00
2022-12-08T07:47:08.244Z,96393.00
2022-12-08T07:49:35.047Z,96384.00
2022-12-08T07:52:01.815Z,96393.00
2022-12-08T07:54:28.794Z,96389.00
2022-12-08T07:56:58.452Z,96395.00
2022-12-08T07:59:25.248Z,96386.00
2022-12-08T08:02:13.175Z,96394.00
2022-12-08T08:04:38.864Z,96397.00
2022-12-08T08:07:05.741Z,96391.00
2022-12-08T08:09:32.494Z,96385.00
2022-12-08T08:12:29.000Z,96392.00
2022-12-08T08:14:46.025Z,96389.00
2022-12-08T08:17:12.915Z,96385.00
2022-12-08T08:19:39.811Z,96388.00
2022-12-08T08:22:06.557Z,96390.00
2022-12-08T08:24:33.414Z,96393.00
2022-12-08T08:27:00.172Z,96384.00
2022-12-08T08:29:26.968Z,96388.00
2022-12-08T08:31:53.729Z,96392.00
2022-12-08T08:34:20.547Z,96388.00
2022-12-08T08:36:47.386Z,96388.00
2022-12-08T08:39:14.611Z,96382.00
2022-12-08T08:41:41.617Z,96389.00
2022-12-08T08:44:08.457Z,96389.00
2022-12-08T08:46:35.383Z,96395.00
2022-12-08T08:49:02.495Z,96380.00
2022-12-08T08:51:29.284Z,96385.00
2022-12-08T08:53:56.057Z,96392.00
2022-12-08T08:56:23.014Z,96382.00
2022-12-08T08:58:50.809Z,96380.00
2022-12-08T09:01:20.972Z,96377.00
2022-12-08T09:03:48.956Z,96384.00
2022-12-08T09:06:16.881Z,96385.00
2022-12-08T09:08:44.727Z,96380.00
2022-12-08T09:11:11.864Z,96379.00
2022-12-08T09:13:38.840Z,96378.00
2022-12-08T09:16:08.512Z,96382.00
2022-12-08T09:18:35.575Z,96379.00
2022-12-08T09:21:13.084Z,96375.00
2022-12-08T09:23:39.947Z,96370.00
2022-12-08T09:26:07.241Z,96373.00
2022-12-08T09:28:34.150Z,96366.00
2022-12-08T09:31:01.270Z,96372.00
2022-12-08T09:33:28.428Z,96367.00
2022-12-08T09:35:55.268Z,96367.00
2022-12-08T09:38:22.012Z,96362.00
2022-12-08T09:40:54.184Z,96360.00
2022-12-08T09:43:35.568Z,96361.00
2022-12-08T09:46:07.903Z,96354.00
2022-12-08T09:48:40.484Z,96358.00
2022-12-08T09:51:09.474Z,96347.00
2022-12-08T09:53:45.897Z,96345.00
2022-12-08T09:56:29.896Z,96342.00
2022-12-08T09:59:25.906Z,96339.00
2022-12-08T10:01:53.146Z,96344.00
2022-12-08T10:04:31.915Z,96339.00
2022-12-08T10:07:24.709Z,96335.00
2022-12-08T10:10:29.729Z,96325.00
2022-12-08T10:13:38.157Z,96321.00
2022-12-08T10:16:26.554Z,96323.00
2022-12-08T10:19:07.946Z,96322.00
2022-12-08T10:21:34.865Z,96317.00
2022-12-08T10:24:19.292Z,96311.00
2022-12-08T10:26:47.063Z,96315.00
2022-12-08T10:29:14.869Z,96304.00
2022-12-08T10:31:42.266Z,96308.00
2022-12-08T10:34:26.038Z,96304.00
2022-12-08T10:36:58.697Z,96307.00
2022-12-08T10:39:38.962Z,96303.00
2022-12-08T10:42:14.742Z,96302.00
2022-12-08T10:45:41.768Z,96290.00
2022-12-08T10:48:20.310Z,96292.00
2022-12-08T10:50:55.721Z,96283.00
2022-12-08T10:53:29.306Z,96284.00
2022-12-08T10:56:02.015Z,96279.00
2022-12-08T10:58:41.027Z,96277.00
2022-12-08T11:01:28.381Z,96279.00
2022-12-08T11:04:00.164Z,96274.00
2022-12-08T11:06:39.208Z,96282.00
2022-12-08T11:09:18.483Z,96283.00
2022-12-08T11:11:57.790Z,96277.00
2022-12-08T11:14:29.353Z,96267.00
2022-12-08T11:17:03.815Z,96267.00
2022-12-08T11:19:30.739Z,96269.00
2022-12-08T11:21:57.555Z,96265.00
2022-12-08T11:24:29.285Z,96259.00
2022-12-08T11:27:04.651Z,96248.00
2022-12-08T11:29:34.126Z,96248.00
2022-12-08T11:32:12.924Z,96237.00
2022-12-08T11:34:51.800Z,96242.00
2022-12-08T11:37:47.632Z,96237.00
2022-12-08T11:40:23.546Z,96228.00
2022-12-08T11:43:05.271Z,96238.00
2022-12-08T11:45:35.388Z,96237.00
2022-12-08T11:48:08.870Z,96231.00
2022-12-08T11:50:43.728Z,96231.00
2022-12-08T11:53:23.183Z,96223.00
2022-12-08T11:55:57.673Z,96219.00
2022-12-08T11:58:46.229Z,96222.00
2022-12-08T12:01:23.549Z,96220.00
2022-12-08T12:04:37.601Z,96220.00
2022-12-08T12:07:32.280Z,96219.00
2022-12-08T12:10:39.257Z,96218.00
2022-12-08T12:13:35.717Z,96219.00
2022-12-08T12:16:38.258Z,96214.00
2022-12-08T12:19:17.741Z,96219.00
2022-12-08T12:21:49.792Z,96218.00
2022-12-08T12:24:28.317Z,96212.00
2022-12-08T12:27:17.315Z,96215.00
2022-12-08T12:30:06.876Z,96214.00
2022-12-08T12:33:01.544Z,96217.00
2022-12-08T12:35:43.352Z,96201.00
2022-12-08T12:38:42.403Z,96213.00
2022-12-08T12:41:10.566Z,96193.00
2022-12-08T12:43:39.168Z,96199.00
2022-12-08T12:46:24.149Z,96196.00
2022-12-08T12:48:52.176Z,96196.00
2022-12-08T12:51:44.986Z,96190.00
2022-12-08T12:54:24.306Z,96194.00
2022-12-08T12:57:17.557Z,96189.00
2022-12-08T12:59:55.629Z,96186.00
2022-12-08T13:02:30.850Z,96184.00
2022-12-08T13:05:01.943Z,96185.00
2022-12-08T13:07:36.170Z,96187.00
2022-12-08T13:10:18.673Z,96178.00
2022-12-08T13:13:01.809Z,96178.00
2022-12-08T13:15:48.434Z,96180.00
2022-12-08T13:18:43.790Z,96173.00
2022-12-08T13:21:10.619Z,96178.00
2022-12-08T13:23:37.325Z,96183.00
2022-12-08T13:26:12.422Z,96178.00
2022-12-08T13:29:04.168Z,96175.00
2022-12-08T13:31:56.193Z,96168.00
2022-12-08T13:35:04.749Z,96156.00
2022-12-08T13:37:54.829Z,96173.00
2022-12-08T13:40:26.153Z,96160.00
2022-12-08T13:43:04.726Z,96161.00
2022-12-08T13:46:26.260Z,96150.00
2022-12-08T13:49:36.518Z,96169.00
2022-12-08T13:57:42.931Z,96173.00
2022-12-08T14:00:20.356Z,96172.00
2022-12-08T14:02:52.904Z,96172.00
2022-12-08T14:05:35.195Z,96171.00
2022-12-08T14:08:50.934Z,96172.00
2022-12-08T14:11:08.803Z,96176.00
2022-12-08T14:13:35.633Z,96166.00
2022-12-08T14:16:02.491Z,96176.00
2022-12-08T14:18:31.738Z,96177.00
2022-12-08T14:21:20.871Z,96172.00
2022-12-08T14:23:48.803Z,96176.00
2022-12-08T14:26:15.627Z,96174.00
2022-12-08T14:28:45.287Z,96171.00
2022-12-08T14:31:14.626Z,96173.00
2022-12-08T14:33:42.459Z,96180.00
2022-12-08T14:36:20.902Z,96172.00
2022-12-08T14:38:49.405Z,96181.00
2022-12-08T14:41:16.241Z,96177.00
2022-12-08T14:43:43.262Z,96181.00
2022-12-08T14:46:23.545Z,96171.00
2022-12-08T14:48:50.506Z,96171.00
2022-12-08T14:51:22.951Z,96171.00
2022-12-08T14:54:22.096Z,96174.00
2022-12-08T14:56:53.195Z,96174.00
2022-12-08T14:59:38.102Z,96171.00
2022-12-08T15:02:15.930Z,96173.00
2022-12-08T15:04:47.581Z,96169.00
2022-12-08T15:07:19.693Z,96167.00
2022-12-08T15:09:51.037Z,96164.00
2022-12-08T15:12:27.675Z,96172.00
2022-12-08T15:15:09.839Z,96171.00
2022-12-08T15:17:48.224Z,96173.00
2022-12-08T15:20:41.084Z,96172.00
2022-12-08T15:23:28.023Z,96169.00
2022-12-08T15:25:55.921Z,96163.00
2022-12-08T15:28:30.046Z,96175.00
2022-12-08T15:30:58.654Z,96165.00
2022-12-08T15:33:26.311Z,96174.00
2022-12-08T15:35:53.572Z,96170.00
2022-12-08T15:38:27.036Z,96169.00
2022-12-08T15:40:55.223Z,96175.00
2022-12-08T15:43:22.875Z,96173.00
2022-12-08T15:45:59.218Z,96179.00
2022-12-08T15:48:29.234Z,96188.00
2022-12-08T15:50:56.609Z,96176.00
2022-12-08T15:53:23.505Z,96175.00
2022-12-08T15:56:19.016Z,96178.00
2022-12-08T15:58:53.745Z,96176.00
2022-12-08T16:01:22.041Z,96177.00
2022-12-08T16:09:41.763Z,96178.00
2022-12-08T16:18:27.519Z,96176.00
2022-12-08T16:21:23.836Z,96182.00
2022-12-08T16:23:44.117Z,96180.00
2022-12-08T16:26:35.708Z,96174.00
2022-12-08T16:29:05.396Z,96176.00
2022-12-08T16:31:32.637Z,96176.00
2022-12-08T16:33:59.603Z,96178.00
2022-12-08T16:36:26.390Z,96181.00
2022-12-08T16:38:53.261Z,96178.00
2022-12-08T16:41:38.729Z,96186.00
2022-12-08T16:44:06.585Z,96175.00
2022-12-08T16:46:33.568Z,96170.00
2022-12-08T16:49:00.413Z,96167.00
2022-12-08T16:51:27.787Z,96163.00
2022-12-08T16:53:57.021Z,96169.00
2022-12-08T16:56:30.376Z,96177.00
2022-12-08T16:58:59.240Z,96171.00
2022-12-08T17:01:26.177Z,96172.00
2022-12-08T17:04:22.330Z,96182.00
2022-12-08T17:06:40.102Z,96182.00
2022-12-08T17:09:06.904Z,96173.00
2022-12-08T17:11:40.829Z,96181.00
2022-12-08T17:14:10.008Z,96185.00
2022-12-08T17:16:36.939Z,96181.00
2022-12-08T17:19:03.741Z,96184.00
2022-12-08T17:21:30.516Z,96183.00
2022-12-08T17:23:57.337Z,96193.00
2022-12-08T17:26:24.180Z,96183.00
2022-12-08T17:29:00.690Z,96187.00
2022-12-08T17:31:31.026Z,96179.00
2022-12-08T17:34:04.020Z,96178.00
2022-12-08T17:36:31.722Z,96186.00
2022-12-08T17:39:00.808Z,96177.00
2022-12-08T17:41:29.078Z,96183.00
2022-12-08T17:43:56.202Z,96175.00
2022-12-08T17:46:23.708Z,96180.00
2022-12-08T17:48:50.756Z,96177.00
2022-12-08T17:51:18.130Z,96179.00
2022-12-08T17:53:45.219Z,96177.00
2022-12-08T17:56:21.039Z,96176.00
2022-12-08T17:58:54.023Z,96175.00
2022-12-08T18:01:22.661Z,96175.00
2022-12-08T18:03:49.890Z,96168.00
2022-12-08T18:06:17.678Z,96170.00
2022-12-08T18:08:44.758Z,96180.00
2022-12-08T18:11:16.486Z,96189.00
2022-12-08T18:13:43.990Z,96188.00
2022-12-08T18:16:10.766Z,96182.00
2022-12-08T18:18:37.573Z,96185.00
2022-12-08T18:21:04.645Z,96177.00
2022-12-08T18:23:31.487Z,96183.00
2022-12-08T18:25:58.544Z,96184.00
2022-12-08T18:28:25.501Z,96180.00
2022-12-08T18:30:52.383Z,96173.00
2022-12-08T18:33:19.170Z,96174.00
2022-12-08T18:35:45.965Z,96178.00
2022-12-08T18:38:12.763Z,96171.00
2022-12-08T18:40:39.582Z,96172.00
2022-12-08T18:43:06.328Z,96175.00
2022-12-08T18:45:36.722Z,96162.00
2022-12-08T18:48:04.036Z,96159.00
2022-12-08T18:50:30.890Z,96157.00
2022-12-08T18:52:57.744Z,96161.00
2022-12-08T18:55:24.480Z,96152.00
2022-12-08T18:57:51.292Z,96148.00
2022-12-08T19:00:19.826Z,96155.00
2022-12-08T19:02:46.866Z,96152.00
2022-12-08T19:05:13.955Z,96164.00
2022-12-08T19:07:42.447Z,96156.00
2022-12-08T19:10:10.283Z,96153.00
2022-12-08T19:12:37.212Z,96152.00
2022-12-08T19:15:05.529Z,96154.00
2022-12-08T19:17:32.669Z,96145.00
2022-12-08T19:19:59.838Z,96145.00
2022-12-08T19:22:26.642Z,96144.00
2022-12-08T19:24:53.419Z,96146.00
2022-12-08T19:27:20.233Z,96152.00
2022-12-08T19:29:47.160Z,96156.00
2022-12-08T19:32:13.962Z,96162.00
2022-12-08T19:34:40.883Z,96158.00
2022-12-08T19:37:08.859Z,96160.00
2022-12-08T19:39:54.184Z,96163.00
2022-12-08T19:42:40.367Z,96158.00
2022-12-08T19:45:17.309Z,96167.00
2022-12-08T19:47:44.564Z,96162.00
2022-12-08T19:50:32.913Z,96162.00
2022-12-08T19:53:00.288Z,96172.00
2022-12-08T19:55:28.266Z,96162.00
2022-12-08T19:57:56.941Z,96156.00
2022-12-08T20:00:24.481Z,96154.00
2022-12-08T20:02:51.673Z,96165.00
2022-12-08T20:05:18.739Z,96165.00
2022-12-08T20:07:45.771Z,96162.00
2022-12-08T20:10:18.667Z,96155.00
2022-12-08T20:12:45.593Z,96155.00
2022-12-08T20:15:12.485Z,96152.00
2022-12-08T20:17:39.461Z,96158.00
2022-12-08T20:20:08.121Z,96159.00
2022-12-08T20:22:35.261Z,96154.00
2022-12-08T20:25:03.248Z,96160.00
2022-12-08T20:27:30.062Z,96171.00
2022-12-08T20:29:56.938Z,96158.00
2022-12-08T20:32:23.945Z,96158.00
2022-12-08T20:34:50.956Z,96154.00
2022-12-08T20:37:17.754Z,96156.00
2022-12-08T20:39:44.569Z,96150.00
2022-12-08T20:42:14.480Z,96145.00
2022-12-08T20:44:44.357Z,96150.00
2022-12-08T20:47:13.109Z,96152.00
2022-12-08T20:49:40.305Z,96147.00
2022-12-08T20:52:07.983Z,96142.00
2022-12-08T20:54:35.453Z,96148.00
2022-12-08T20:57:02.664Z,96150.00
2022-12-08T20:59:29.600Z,96161.00
2022-12-08T21:01:56.680Z,96161.00
2022-12-08T21:04:24.087Z,96160.00
2022-12-08T21:06:51.003Z,96155.00
2022-12-08T21:09:18.774Z,96171.00
2022-12-08T21:11:45.732Z,96163.00
2022-12-08T21:14:12.896Z,96161.00
2022-12-08T21:16:40.248Z,96153.00
2022-12-08T21:19:07.322Z,96161.00
2022-12-08T21:21:34.674Z,96167.00
2022-12-08T21:24:03.772Z,96163.00
2022-12-08T21:26:30.995Z,96163.00
2022-12-08T21:29:01.179Z,96170.00
2022-12-08T21:31:29.333Z,96174.00
2022-12-08T21:33:56.650Z,96167.00
2022-12-08T21:36:23.901Z,96161.00
2022-12-08T21:38:51.318Z,96166.00
2022-12-08T21:41:40.899Z,96178.00
2022-12-08T21:44:10.998Z,96176.00
2022-12-08T21:46:38.111Z,96169.00
2022-12-08T21:49:06.042Z,96167.00
2022-12-08T21:51:35.095Z,96174.00
2022-12-08T21:54:02.288Z,96167.00
2022-12-08T21:56:29.277Z,96166.00
2022-12-08T21:58:56.237Z,96175.00
2022-12-08T22:01:23.216Z,96165.00
2022-12-08T22:03:50.694Z,96167.00
2022-12-08T22:06:17.665Z,96166.00
2022-12-08T22:08:45.219Z,96165.00
2022-12-08T22:11:12.491Z,96172.00
2022-12-08T22:13:41.646Z,96184.00
2022-12-08T22:16:12.670Z,96176.00
2022-12-08T22:18:39.833Z,96172.00
2022-12-08T22:21:15.437Z,96174.00
2022-12-08T22:23:43.261Z,96172.00
2022-12-08T22:26:11.891Z,96171.00
2022-12-08T22:28:41.623Z,96170.00
2022-12-08T22:31:20.820Z,96163.00
2022-12-08T22:33:49.955Z,96154.00
2022-12-08T22:36:25.458Z,96153.00
2022-12-08T22:38:53.609Z,96160.00
2022-12-08T22:41:21.397Z,96149.00
2022-12-08T22:43:49.236Z,96146.00
2022-12-08T22:46:22.122Z,96138.00
2022-12-08T22:48:49.225Z,96143.00
2022-12-08T22:51:16.486Z,96136.00
2022-12-08T22:53:43.813Z,96135.00
2022-12-08T22:56:13.328Z,96132.00
2022-12-08T22:58:41.844Z,96131.00
2022-12-08T23:01:14.064Z,96134.00
2022-12-08T23:03:41.022Z,96133.00
2022-12-08T23:06:13.055Z,96135.00
2022-12-08T23:08:40.321Z,96140.00
2022-12-08T23:11:07.458Z,96147.00
2022-12-08T23:13:34.264Z,96153.00
2022-12-08T23:16:01.196Z,96141.00
2022-12-08T23:18:28.039Z,96141.00
2022-12-08T23:20:54.797Z,96139.00
2022-12-08T23:23:21.773Z,96134.00
2022-12-08T23:25:48.602Z,96132.00
2022-12-08T23:28:15.684Z,96130.00
2022-12-08T23:30:42.665Z,96133.00
2022-12-08T23:33:09.801Z,96127.00
2022-12-08T23:35:36.903Z,96133.00
2022-12-08T23:38:04.254Z,96122.00
2022-12-08T23:40:31.096Z,96121.00
2022-12-08T23:42:57.860Z,96126.00
2022-12-08T23:45:24.675Z,96123.00
2022-12-08T23:47:52.313Z,96116.00
2022-12-08T23:50:19.642Z,96120.00
2022-12-08T23:52:46.451Z,96114.00
2022-12-08T23:55:13.229Z,96118.00
2022-12-08T23:57:40.054Z,96118.00
